Time;durP1;ratioP1;P1;durP2;ratioP2;P2;SDS_P1;SDS_P2;PMS_P1;PMS_P2;Temp;Humidity;BMP_temperature;BMP_pressure;BME280_temperature;BME280_humidity;BME280_pressure;Samples;Min_cycle;Max_cycle;Signal;HPM_P1;HPM_P2
2021/12/21 00:01:17;;;;;;;15.97;15.37;;;18.50;73.00;;;;;;5033311;28;20477;-46
2021/12/21 00:03:44;;;;;;;16.80;15.80;;;18.50;73.50;;;;;;5032982;28;20457;-47
2021/12/21 00:06:11;;;;;;;15.30;14.70;;;18.50;73.70;;;;;;5033483;28;20456;-47
2021/12/21 00:08:38;;;;;;;14.63;14.03;;;18.50;74.10;;;;;;5033290;28;20441;-46
2021/12/21 00:11:06;;;;;;;16.30;15.60;;;18.50;74.40;;;;;;5033229;28;20873;-46
2021/12/21 00:16:43;;;;;;;16.27;15.53;;;18.40;74.90;;;;;;5022441;28;20507;-46
2021/12/21 00:19:25;;;;;;;15.60;14.87;;;18.40;75.10;;;;;;5033347;28;20865;-47
2021/12/21 00:21:56;;;;;;;15.47;14.67;;;18.40;75.40;;;;;;5032966;28;20473;-47
2021/12/21 00:24:30;;;;;;;14.90;14.00;;;18.40;76.30;;;;;;5032847;28;20449;-47
2021/12/21 00:27:00;;;;;;;15.00;14.00;;;18.40;75.70;;;;;;5033066;28;20480;-47
2021/12/21 00:29:27;;;;;;;14.70;14.10;;;18.40;75.80;;;;;;5033077;28;20449;-47
2021/12/21 00:31:53;;;;;;;15.20;14.60;;;18.30;76.10;;;;;;5032809;28;20473;-47
2021/12/21 00:34:22;;;;;;;14.53;14.00;;;18.30;76.40;;;;;;5032618;28;20449;-46
2021/12/21 00:36:48;;;;;;;14.87;14.17;;;18.30;76.50;;;;;;5032655;28;20637;-47
2021/12/21 00:39:16;;;;;;;14.83;14.23;;;18.30;76.40;;;;;;5032804;28;20452;-47
2021/12/21 00:41:43;;;;;;;16.30;15.50;;;18.20;76.60;;;;;;5032527;28;20476;-47
2021/12/21 00:44:11;;;;;;;14.97;14.43;;;18.20;77.00;;;;;;5032490;28;20453;-47
2021/12/21 00:46:39;;;;;;;14.27;13.67;;;18.20;77.30;;;;;;5032263;28;20499;-46
2021/12/21 00:49:14;;;;;;;14.70;14.10;;;18.20;77.30;;;;;;5032618;28;20453;-46
2021/12/21 00:51:41;;;;;;;15.50;14.83;;;18.20;77.20;;;;;;5032387;28;20472;-47
2021/12/21 00:54:08;;;;;;;14.47;13.90;;;18.20;77.50;;;;;;5032128;28;20822;-47
2021/12/21 00:56:34;;;;;;;14.03;13.43;;;18.00;78.00;;;;;;5032433;28;20441;-46
2021/12/21 00:59:01;;;;;;;15.33;14.80;;;18.00;78.90;;;;;;5032413;28;20453;-46
2021/12/21 01:01:29;;;;;;;14.67;14.07;;;17.90;79.30;;;;;;5031964;28;20477;-46
2021/12/21 01:03:58;;;;;;;14.63;13.93;;;18.00;79.20;;;;;;5032179;28;20453;-47
2021/12/21 01:06:37;;;;;;;14.90;14.20;;;18.00;79.30;;;;;;5032332;28;20844;-47
2021/12/21 01:09:11;;;;;;;13.97;13.47;;;18.00;79.20;;;;;;5032417;28;20948;-47
2021/12/21 01:11:41;;;;;;;13.90;13.40;;;18.00;79.40;;;;;;5031988;28;20473;-46
2021/12/21 01:14:33;;;;;;;13.90;13.40;;;17.90;80.10;;;;;;5032192;28;20503;-46
2021/12/21 01:17:07;;;;;;;14.30;13.80;;;17.80;81.00;;;;;;5032000;28;20477;-49
2021/12/21 01:19:37;;;;;;;13.43;12.93;;;17.70;81.80;;;;;;5032167;28;20983;-47
2021/12/21 01:22:12;;;;;;;14.73;14.03;;;17.70;82.10;;;;;;5032081;28;20465;-47
2021/12/21 01:24:58;;;;;;;14.50;13.97;;;17.60;82.50;;;;;;5031438;28;21020;-50
2021/12/21 01:27:35;;;;;;;15.03;14.43;;;17.60;83.40;;;;;;5031991;28;20448;-47
2021/12/21 01:30:10;;;;;;;14.50;13.90;;;17.60;84.30;;;;;;5031879;28;20503;-48
2021/12/21 01:32:55;;;;;;;15.23;14.43;;;17.50;84.70;;;;;;5031559;28;20472;-47
2021/12/21 01:35:28;;;;;;;14.77;14.07;;;17.50;85.30;;;;;;5028880;28;20449;-45
2021/12/21 01:38:01;;;;;;;13.80;13.30;;;17.50;85.50;;;;;;5031844;28;20485;-48
2021/12/21 01:40:39;;;;;;;14.73;14.13;;;17.50;85.90;;;;;;5031869;28;20449;-46
2021/12/21 01:51:20;;;;;;;14.47;13.80;;;17.30;88.60;;;;;;5031614;28;20445;-48
2021/12/21 01:53:47;;;;;;;13.97;13.53;;;17.30;89.00;;;;;;5030930;28;20449;-46
2021/12/21 01:56:15;;;;;;;14.47;13.97;;;17.30;89.00;;;;;;5031465;28;20810;-47
2021/12/21 01:58:42;;;;;;;14.53;14.03;;;17.30;89.70;;;;;;5031412;28;20831;-46
2021/12/21 02:01:11;;;;;;;14.40;13.70;;;17.30;89.90;;;;;;5031865;28;21017;-47
2021/12/21 02:03:41;;;;;;;14.87;14.27;;;17.30;90.00;;;;;;5031150;28;20441;-46
2021/12/21 02:06:08;;;;;;;13.97;13.37;;;17.30;90.30;;;;;;5031508;28;20452;-46
2021/12/21 02:08:35;;;;;;;14.53;13.93;;;17.40;90.40;;;;;;5031394;28;20441;-46
2021/12/21 02:11:04;;;;;;;14.07;13.57;;;17.30;90.60;;;;;;5031518;28;20815;-49
2021/12/21 02:13:35;;;;;;;14.13;13.63;;;17.30;90.50;;;;;;5031061;28;20547;-46
2021/12/21 02:16:02;;;;;;;13.27;12.87;;;17.30;90.60;;;;;;5031352;28;20533;-46
2021/12/21 02:18:38;;;;;;;13.93;13.33;;;17.30;90.90;;;;;;5031381;28;20519;-48
2021/12/21 02:21:22;;;;;;;14.63;14.13;;;17.20;90.80;;;;;;5031330;28;20791;-47
2021/12/21 02:23:51;;;;;;;13.97;13.37;;;17.20;91.00;;;;;;5030877;28;21100;-46
2021/12/21 02:26:34;;;;;;;14.40;13.80;;;17.30;91.00;;;;;;5031207;28;20496;-48
2021/12/21 02:29:14;;;;;;;14.00;13.50;;;17.30;91.30;;;;;;5031298;28;20503;-47
2021/12/21 02:31:43;;;;;;;13.93;13.43;;;17.20;91.40;;;;;;5031061;28;20496;-46
2021/12/21 02:34:10;;;;;;;12.90;12.40;;;17.30;91.60;;;;;;5030884;28;20958;-48
2021/12/21 02:36:40;;;;;;;13.97;13.47;;;17.30;91.40;;;;;;5031148;28;20506;-46
2021/12/21 02:39:08;;;;;;;13.80;13.30;;;17.20;91.80;;;;;;5031114;28;20484;-46
2021/12/21 02:41:35;;;;;;;13.60;13.10;;;17.20;91.80;;;;;;5030882;28;20491;-47
2021/12/21 02:44:02;;;;;;;13.67;13.17;;;17.30;91.70;;;;;;5030598;28;20443;-46
2021/12/21 02:46:28;;;;;;;13.80;13.30;;;17.20;91.90;;;;;;5032901;28;20528;-46
2021/12/21 02:48:55;;;;;;;14.07;13.57;;;17.20;91.80;;;;;;5034857;28;20840;-46
2021/12/21 02:51:22;;;;;;;15.23;14.60;;;17.20;91.90;;;;;;5034827;28;20475;-46
2021/12/21 02:53:51;;;;;;;14.90;14.40;;;17.20;91.90;;;;;;5034265;28;20456;-46
2021/12/21 02:56:18;;;;;;;14.17;13.67;;;17.10;92.00;;;;;;5034779;28;20501;-46
2021/12/21 02:58:45;;;;;;;14.00;13.50;;;17.10;92.30;;;;;;5034540;28;20542;-46
2021/12/21 03:01:13;;;;;;;13.67;13.17;;;17.20;92.40;;;;;;5034720;28;20477;-46
2021/12/21 03:03:40;;;;;;;13.63;13.23;;;17.10;92.60;;;;;;5034075;28;20437;-46
2021/12/21 03:06:11;;;;;;;13.70;13.20;;;17.10;92.60;;;;;;5034485;28;20842;-46
2021/12/21 03:08:41;;;;;;;14.60;14.00;;;17.20;92.40;;;;;;5034509;28;20469;-46
2021/12/21 03:11:16;;;;;;;13.50;12.90;;;17.20;92.40;;;;;;5034420;28;20472;-46
2021/12/21 03:13:55;;;;;;;12.97;12.57;;;17.10;92.50;;;;;;5033883;28;20448;-46
2021/12/21 03:16:22;;;;;;;13.10;12.70;;;17.10;92.70;;;;;;5034365;28;20449;-46
2021/12/21 03:18:50;;;;;;;13.87;13.37;;;17.20;92.60;;;;;;5034311;28;20484;-49
2021/12/21 03:21:17;;;;;;;13.77;13.20;;;17.10;92.70;;;;;;5034316;28;20457;-46
2021/12/21 03:23:43;;;;;;;13.93;13.43;;;17.10;92.90;;;;;;5033931;28;20456;-46
2021/12/21 03:26:11;;;;;;;14.73;14.13;;;17.00;93.00;;;;;;5034244;28;20460;-47
2021/12/21 03:28:38;;;;;;;13.23;12.83;;;17.10;92.90;;;;;;5034018;28;20441;-46
2021/12/21 03:31:06;;;;;;;13.90;13.30;;;17.00;93.10;;;;;;5033737;28;20469;-46
2021/12/21 03:33:33;;;;;;;13.80;13.30;;;17.10;93.20;;;;;;5033936;28;21018;-48
2021/12/21 03:36:02;;;;;;;12.97;12.57;;;17.00;93.00;;;;;;5033977;28;20942;-46
2021/12/21 03:38:29;;;;;;;13.80;13.30;;;17.00;93.10;;;;;;5033938;28;20523;-46
2021/12/21 03:41:02;;;;;;;13.10;12.70;;;17.00;93.30;;;;;;5033553;28;20452;-47
2021/12/21 03:43:31;;;;;;;12.90;12.40;;;17.00;93.10;;;;;;5033785;28;20449;-46
2021/12/21 03:46:05;;;;;;;13.80;13.30;;;17.00;92.90;;;;;;5033741;28;20824;-49
2021/12/21 03:48:32;;;;;;;14.23;13.63;;;17.10;93.10;;;;;;5033891;28;20444;-47
2021/12/21 03:50:59;;;;;;;14.07;13.47;;;17.10;92.90;;;;;;5033425;28;20452;-45
2021/12/21 03:53:26;;;;;;;13.73;13.33;;;17.00;93.00;;;;;;5033529;28;20452;-49
2021/12/21 03:56:03;;;;;;;13.80;13.30;;;17.00;93.30;;;;;;5033699;28;20449;-46
2021/12/21 03:58:31;;;;;;;13.27;12.87;;;16.90;93.70;;;;;;5033264;28;20516;-46
2021/12/21 04:00:58;;;;;;;13.37;12.97;;;16.80;94.20;;;;;;5033068;28;20449;-47
2021/12/21 04:03:24;;;;;;;13.80;13.30;;;16.70;94.80;;;;;;5033368;28;20452;-48
2021/12/21 04:05:51;;;;;;;13.90;13.40;;;16.80;94.90;;;;;;5033558;28;20453;-46
2021/12/21 04:08:18;;;;;;;13.40;13.00;;;16.80;95.10;;;;;;5033416;28;20456;-46
2021/12/21 04:10:44;;;;;;;13.53;13.13;;;16.80;95.10;;;;;;5032823;28;20449;-47
2021/12/21 04:13:11;;;;;;;13.90;13.40;;;16.80;95.00;;;;;;5033144;28;20449;-47
2021/12/21 04:15:43;;;;;;;13.53;13.13;;;16.80;95.30;;;;;;5033244;28;20441;-46
2021/12/21 04:18:10;;;;;;;13.10;12.70;;;16.80;95.30;;;;;;5033178;28;20515;-46
2021/12/21 04:20:36;;;;;;;13.93;13.27;;;16.80;95.40;;;;;;5032919;28;20515;-46
2021/12/21 04:23:03;;;;;;;14.67;13.93;;;16.70;95.50;;;;;;5032742;28;20473;-46
2021/12/21 04:25:30;;;;;;;14.00;13.53;;;16.70;95.80;;;;;;5033041;28;20449;-46
2021/12/21 04:27:57;;;;;;;13.00;12.60;;;16.60;96.00;;;;;;5033019;28;20445;-46
2021/12/21 04:30:24;;;;;;;13.43;13.00;;;16.60;96.40;;;;;;5032658;28;20939;-46
2021/12/21 04:32:52;;;;;;;13.33;12.83;;;16.60;96.30;;;;;;5032717;28;20469;-46
2021/12/21 04:35:20;;;;;;;13.50;12.90;;;16.60;96.20;;;;;;5032873;28;20441;-46
2021/12/21 04:37:52;;;;;;;14.00;13.50;;;16.70;96.00;;;;;;5032704;28;20540;-46
2021/12/21 04:40:22;;;;;;;13.60;13.10;;;16.60;96.10;;;;;;5032295;28;20456;-46
2021/12/21 04:42:49;;;;;;;14.23;13.63;;;16.70;95.90;;;;;;5032505;28;20564;-46
2021/12/21 04:45:15;;;;;;;14.57;13.90;;;16.70;96.10;;;;;;5032694;28;20441;-49
2021/12/21 04:47:42;;;;;;;13.93;13.53;;;16.60;96.30;;;;;;5032734;28;20445;-46
2021/12/21 04:50:11;;;;;;;14.10;13.60;;;16.70;96.20;;;;;;5032210;28;20934;-46
2021/12/21 04:52:37;;;;;;;14.07;13.57;;;16.60;96.30;;;;;;5032236;28;20477;-51
2021/12/21 04:55:05;;;;;;;14.20;13.70;;;16.70;96.10;;;;;;5032537;28;20449;-47
2021/12/21 04:57:31;;;;;;;14.00;13.50;;;16.60;96.30;;;;;;5032507;28;20448;-46
2021/12/21 04:59:58;;;;;;;13.80;13.30;;;16.70;96.30;;;;;;5032377;28;20484;-48
2021/12/21 05:02:25;;;;;;;13.70;13.30;;;16.80;96.00;;;;;;5031983;28;20479;-46
2021/12/21 05:04:51;;;;;;;14.90;14.30;;;16.70;96.00;;;;;;5032437;28;20452;-47
2021/12/21 05:07:23;;;;;;;14.40;13.90;;;16.60;96.10;;;;;;5032428;28;20505;-51
2021/12/21 05:09:56;;;;;;;14.57;14.07;;;16.70;96.10;;;;;;5031415;28;20532;-50
2021/12/21 05:12:22;;;;;;;14.33;13.83;;;16.60;95.90;;;;;;5031838;28;20560;-51
2021/12/21 05:14:49;;;;;;;13.97;13.47;;;16.70;95.90;;;;;;5032200;28;20452;-46
2021/12/21 05:17:16;;;;;;;14.83;14.33;;;16.70;95.80;;;;;;5032207;28;20445;-52
2021/12/21 05:19:43;;;;;;;15.37;14.77;;;16.70;96.00;;;;;;5031675;28;20477;-51
2021/12/21 05:22:10;;;;;;;14.70;14.10;;;16.60;95.90;;;;;;5031696;28;20468;-52
2021/12/21 05:24:38;;;;;;;14.60;14.00;;;16.70;96.00;;;;;;5031944;28;20457;-48
2021/12/21 05:27:05;;;;;;;14.93;14.43;;;16.60;96.20;;;;;;5032010;28;20445;-52
2021/12/21 05:29:32;;;;;;;15.10;14.60;;;16.60;96.40;;;;;;5031765;28;20790;-49
2021/12/21 05:31:59;;;;;;;15.13;14.63;;;16.50;96.30;;;;;;5031004;28;20472;-48
2021/12/21 05:34:26;;;;;;;15.20;14.60;;;16.60;96.40;;;;;;5031716;28;20938;-49
2021/12/21 05:36:53;;;;;;;14.80;14.30;;;16.60;96.20;;;;;;5031339;28;20448;-48
2021/12/21 05:39:23;;;;;;;13.77;13.37;;;16.60;96.20;;;;;;5031593;28;20485;-50
2021/12/21 05:41:54;;;;;;;14.73;14.13;;;16.60;96.30;;;;;;5031541;28;20472;-45
2021/12/21 05:44:22;;;;;;;14.90;14.40;;;16.60;96.20;;;;;;5031683;28;20888;-45
2021/12/21 05:46:49;;;;;;;14.70;14.20;;;16.60;96.10;;;;;;5031383;28;20452;-49
2021/12/21 05:49:16;;;;;;;14.70;14.20;;;16.70;95.90;;;;;;5031430;28;20445;-46
2021/12/21 05:51:43;;;;;;;14.80;14.30;;;16.90;97.10;;;;;;5031436;28;20469;-46
2021/12/21 05:54:10;;;;;;;15.20;14.60;;;17.90;94.80;;;;;;5031359;28;20449;-47
2021/12/21 05:56:37;;;;;;;15.67;15.17;;;18.80;91.00;;;;;;5031313;28;20445;-49
2021/12/21 05:59:05;;;;;;;13.90;13.40;;;19.30;85.70;;;;;;5031395;28;20538;-49
2021/12/21 06:01:32;;;;;;;14.90;14.40;;;19.60;80.90;;;;;;5031176;28;20476;-50
2021/12/21 06:04:00;;;;;;;15.30;14.70;;;19.80;77.50;;;;;;5031409;28;20869;-49
2021/12/21 06:06:27;;;;;;;15.07;14.50;;;20.00;74.60;;;;;;5030824;28;20503;-50
2021/12/21 06:08:56;;;;;;;15.33;14.77;;;20.10;72.80;;;;;;5031154;28;20457;-48
2021/12/21 06:11:23;;;;;;;14.63;14.13;;;20.10;71.40;;;;;;5031303;28;20484;-50
2021/12/21 06:27:50;;;;;;;15.10;14.50;;;20.10;66.50;;;;;;5035065;28;20456;-48
2021/12/21 06:30:17;;;;;;;15.20;14.70;;;20.10;66.20;;;;;;5035205;28;20445;-48
2021/12/21 06:32:46;;;;;;;15.07;14.50;;;20.10;65.60;;;;;;5035102;28;20842;-48
2021/12/21 06:35:14;;;;;;;14.70;14.20;;;20.10;65.20;;;;;;5035102;28;20942;-47
2021/12/21 06:37:41;;;;;;;15.53;14.93;;;20.20;64.80;;;;;;5034806;28;20475;-48
2021/12/21 06:40:09;;;;;;;14.90;14.40;;;20.10;64.30;;;;;;5035078;28;21103;-53
2021/12/21 06:42:37;;;;;;;15.60;15.10;;;20.10;63.90;;;;;;5034633;28;20460;-47
2021/12/21 06:45:12;;;;;;;14.97;14.47;;;20.10;63.70;;;;;;5034740;28;20942;-47
2021/12/21 06:53:10;;;;;;;15.20;14.70;;;20.00;62.80;;;;;;5034644;28;20421;-46
2021/12/21 06:55:36;;;;;;;15.87;15.37;;;19.90;62.70;;;;;;5034680;28;20456;-47
2021/12/21 06:58:03;;;;;;;15.20;14.60;;;19.90;62.90;;;;;;5034458;28;20448;-47
2021/12/21 07:00:30;;;;;;;15.83;15.23;;;19.90;62.80;;;;;;5034509;28;20508;-47
2021/12/21 07:02:57;;;;;;;15.20;14.70;;;19.90;62.60;;;;;;5034335;28;20839;-46
2021/12/21 07:05:26;;;;;;;15.13;14.63;;;19.90;62.10;;;;;;5034492;28;20449;-46
2021/12/21 07:07:53;;;;;;;15.37;14.77;;;19.90;61.80;;;;;;5033933;28;20814;-50
2021/12/21 07:10:25;;;;;;;14.53;14.13;;;19.90;61.70;;;;;;5022743;28;20448;-49
2021/12/21 07:21:04;;;;;;;12.40;12.00;;;19.60;62.70;;;;;;5020310;28;20453;-47
2021/12/21 07:23:31;;;;;;;12.53;12.03;;;19.60;63.20;;;;;;5022104;28;21029;-47
2021/12/21 07:25:58;;;;;;;13.00;12.60;;;19.50;63.50;;;;;;5002712;28;20456;-49
2021/12/21 07:28:25;;;;;;;14.03;13.53;;;19.50;63.80;;;;;;5002646;28;20450;-48
2021/12/21 07:30:52;;;;;;;14.43;13.93;;;19.40;64.30;;;;;;5002168;28;20457;-48
2021/12/21 07:33:19;;;;;;;13.47;12.97;;;19.20;65.30;;;;;;5001614;28;20838;-48
2021/12/21 07:35:45;;;;;;;12.97;12.57;;;18.80;66.70;;;;;;5020791;28;20945;-47
2021/12/21 07:38:13;;;;;;;13.70;13.30;;;18.70;68.40;;;;;;5022053;28;20456;-47
2021/12/21 07:40:40;;;;;;;12.37;11.97;;;18.50;69.40;;;;;;5022103;28;20491;-48
2021/12/21 07:43:08;;;;;;;12.80;12.27;;;18.40;70.30;;;;;;5021834;28;20456;-48
2021/12/21 07:45:35;;;;;;;12.90;12.50;;;18.40;71.30;;;;;;5021809;28;20449;-47
2021/12/21 07:48:02;;;;;;;12.20;11.70;;;18.30;71.90;;;;;;5021378;28;20930;-47
2021/12/21 07:50:29;;;;;;;12.60;12.20;;;18.20;72.80;;;;;;5021675;28;21017;-48
2021/12/21 07:52:57;;;;;;;12.83;12.43;;;18.20;73.40;;;;;;5021464;28;20484;-47
2021/12/21 07:55:25;;;;;;;11.80;11.40;;;18.10;74.20;;;;;;5020845;28;21121;-47
2021/12/21 07:57:52;;;;;;;12.40;12.00;;;18.10;74.70;;;;;;5021958;28;20449;-49
2021/12/21 08:00:21;;;;;;;12.50;12.10;;;18.20;74.90;;;;;;5021388;28;20484;-48
2021/12/21 08:02:48;;;;;;;11.10;10.70;;;18.40;75.60;;;;;;5020964;28;20445;-48
2021/12/21 08:05:15;;;;;;;13.10;12.70;;;19.30;74.50;;;;;;5021191;28;20592;-51
2021/12/21 08:07:48;;;;;;;12.70;12.37;;;20.10;70.00;;;;;;5021827;28;21022;-49
2021/12/21 08:10:25;;;;;;;14.40;13.90;;;20.80;66.50;;;;;;5021262;28;20445;-49
2021/12/21 08:12:55;;;;;;;13.50;13.07;;;21.50;63.60;;;;;;5021366;28;20861;-48
2021/12/21 08:15:22;;;;;;;13.07;12.67;;;22.10;60.70;;;;;;5021324;28;20446;-50
2021/12/21 08:17:49;;;;;;;13.18;12.77;;;22.50;58.70;;;;;;5021433;28;20860;-49
2021/12/21 08:20:15;;;;;;;13.13;12.73;;;22.60;57.30;;;;;;5021217;28;20234;-48
2021/12/21 08:22:42;;;;;;;13.03;12.63;;;22.70;56.20;;;;;;5020959;28;20479;-49
2021/12/21 08:25:09;;;;;;;14.07;13.53;;;22.70;56.00;;;;;;5020928;28;20453;-48
2021/12/21 08:27:36;;;;;;;13.27;12.80;;;22.70;55.00;;;;;;5020992;28;20970;-48
2021/12/21 08:30:05;;;;;;;12.60;12.20;;;22.70;54.60;;;;;;5020742;28;20821;-49
2021/12/21 08:32:32;;;;;;;13.00;12.60;;;22.70;54.90;;;;;;5020555;28;20491;-47
2021/12/21 08:34:58;;;;;;;13.60;13.20;;;22.80;54.90;;;;;;5020712;28;20974;-49
2021/12/21 08:37:25;;;;;;;13.20;12.80;;;23.20;54.60;;;;;;5020671;28;20445;-47
2021/12/21 08:39:52;;;;;;;14.10;13.60;;;23.60;54.00;;;;;;5020806;28;20850;-49
2021/12/21 08:42:19;;;;;;;13.03;12.50;;;23.80;52.90;;;;;;5020245;28;20476;-49
2021/12/21 08:44:47;;;;;;;13.77;13.37;;;24.00;52.20;;;;;;5020845;28;20476;-51
2021/12/21 08:47:16;;;;;;;13.40;13.00;;;23.90;51.70;;;;;;5020607;28;20460;-50
2021/12/21 08:49:43;;;;;;;11.75;11.35;;;24.10;51.60;;;;;;5020126;28;20990;-48
2021/12/21 08:52:11;;;;;;;13.43;13.03;;;23.90;51.30;;;;;;5020561;28;20214;-48
2021/12/21 08:54:37;;;;;;;12.60;12.20;;;23.90;51.10;;;;;;5020804;28;20977;-49
2021/12/21 08:57:05;;;;;;;13.40;13.00;;;23.90;51.10;;;;;;5020807;28;20444;-48
2021/12/21 08:59:31;;;;;;;12.57;12.07;;;24.10;51.20;;;;;;5020027;28;20461;-48
2021/12/21 09:01:58;;;;;;;13.57;13.17;;;24.40;51.00;;;;;;5020330;28;20226;-49
2021/12/21 09:04:27;;;;;;;14.37;13.87;;;24.80;49.40;;;;;;5020680;28;20453;-52
2021/12/21 09:06:54;;;;;;;14.33;13.70;;;24.90;49.10;;;;;;5010224;28;21189;-50
2021/12/21 09:09:22;;;;;;;14.30;13.70;;;24.70;48.90;;;;;;5009316;28;20452;-47
2021/12/21 09:11:50;;;;;;;13.23;12.83;;;24.60;49.10;;;;;;5020224;28;20556;-49
2021/12/21 09:14:18;;;;;;;11.60;11.20;;;24.50;49.20;;;;;;5005468;28;20433;-48
2021/12/21 09:16:46;;;;;;;13.47;13.07;;;24.80;49.10;;;;;;5000504;28;20612;-48
2021/12/21 09:19:13;;;;;;;14.40;13.80;;;25.20;48.60;;;;;;5006777;28;20452;-50
2021/12/21 09:21:41;;;;;;;13.63;13.23;;;25.50;47.80;;;;;;5015930;28;20473;-50
2021/12/21 09:24:08;;;;;;;15.10;14.60;;;25.60;47.30;;;;;;5001038;28;20936;-52
2021/12/21 09:26:35;;;;;;;14.10;13.70;;;25.60;46.90;;;;;;5001928;28;20560;-55
2021/12/21 09:29:02;;;;;;;14.83;14.43;;;25.60;46.80;;;;;;5020564;28;20916;-54
2021/12/21 09:31:29;;;;;;;15.20;14.60;;;25.70;46.50;;;;;;5020202;28;20472;-53
2021/12/21 09:33:56;;;;;;;14.43;13.93;;;25.60;46.50;;;;;;5019995;28;20803;-51
2021/12/21 09:36:25;;;;;;;14.73;14.23;;;25.50;46.50;;;;;;5020521;28;20460;-53
2021/12/21 09:38:53;;;;;;;16.03;15.43;;;25.60;46.50;;;;;;5014204;28;20672;-51
2021/12/21 09:41:20;;;;;;;15.20;14.68;;;26.00;46.20;;;;;;5006655;28;20472;-52
2021/12/21 09:43:46;;;;;;;15.67;14.97;;;26.10;45.60;;;;;;5019751;28;20202;-52
2021/12/21 09:46:13;;;;;;;13.83;13.30;;;26.00;45.50;;;;;;5019813;28;20449;-51
2021/12/21 09:48:40;;;;;;;13.02;12.63;;;26.00;45.20;;;;;;5019280;28;20457;-50
2021/12/21 09:51:08;;;;;;;15.50;14.80;;;25.90;45.50;;;;;;5019891;28;20245;-48
2021/12/21 09:53:36;;;;;;;15.83;15.33;;;25.90;45.00;;;;;;5019688;28;20459;-50
2021/12/21 09:56:06;;;;;;;15.30;14.70;;;25.80;44.90;;;;;;5019168;28;20453;-50
2021/12/21 09:58:33;;;;;;;14.20;13.70;;;25.80;44.30;;;;;;5019370;28;20449;-48
2021/12/21 10:00:59;;;;;;;16.20;15.60;;;25.70;44.40;;;;;;5019317;28;20480;-49
2021/12/21 10:03:26;;;;;;;14.63;13.83;;;26.00;44.90;;;;;;5019147;28;20457;-51
2021/12/21 10:06:03;;;;;;;15.37;14.83;;;26.20;44.60;;;;;;5019265;28;20449;-49
2021/12/21 10:08:31;;;;;;;14.57;13.97;;;26.20;44.50;;;;;;5019193;28;20445;-52
2021/12/21 10:10:58;;;;;;;16.43;15.83;;;26.10;44.60;;;;;;5019524;28;20445;-50
2021/12/21 10:13:27;;;;;;;15.50;15.00;;;26.00;44.70;;;;;;5010110;28;21023;-49
2021/12/21 10:15:57;;;;;;;15.23;14.63;;;26.00;44.80;;;;;;5000170;28;20446;-48
2021/12/21 10:18:25;;;;;;;14.33;13.83;;;25.90;44.80;;;;;;4999964;28;20449;-47
2021/12/21 10:20:52;;;;;;;13.57;12.93;;;25.80;44.70;;;;;;5004404;28;20948;-47
2021/12/21 10:23:21;;;;;;;13.20;12.80;;;26.20;43.10;;;;;;5019693;28;20459;-46
2021/12/21 10:25:52;;;;;;;14.63;14.03;;;26.40;43.10;;;;;;5019689;28;21061;-47
2021/12/21 10:28:33;;;;;;;14.73;14.23;;;26.50;43.40;;;;;;5019567;28;20453;-48
2021/12/21 10:31:03;;;;;;;12.73;12.43;;;26.40;43.50;;;;;;5019453;28;20495;-47
2021/12/21 10:33:31;;;;;;;14.20;13.70;;;26.30;43.60;;;;;;5019108;28;20452;-46
2021/12/21 10:36:01;;;;;;;13.70;13.20;;;26.20;43.70;;;;;;5019133;28;20876;-48
2021/12/21 10:38:32;;;;;;;13.80;13.30;;;26.20;44.00;;;;;;5019557;28;20966;-46
2021/12/21 10:41:06;;;;;;;14.73;14.23;;;26.40;44.00;;;;;;5019638;28;20577;-48
2021/12/21 10:43:34;;;;;;;13.47;13.07;;;26.70;43.60;;;;;;5018993;28;20449;-47
2021/12/21 10:46:03;;;;;;;13.57;13.07;;;26.80;43.20;;;;;;5019463;28;21000;-46
2021/12/21 10:48:30;;;;;;;13.40;12.90;;;26.90;43.10;;;;;;5019249;28;20449;-45
2021/12/21 10:50:57;;;;;;;13.17;12.77;;;26.90;42.90;;;;;;5019497;28;20448;-47
2021/12/21 10:53:26;;;;;;;13.80;13.30;;;27.00;42.80;;;;;;5019198;28;20452;-50
2021/12/21 10:56:01;;;;;;;13.50;13.10;;;27.00;42.60;;;;;;5019493;28;20481;-46
2021/12/21 10:58:30;;;;;;;13.43;13.03;;;27.00;43.20;;;;;;5019947;28;21019;-46
2021/12/21 11:01:00;;;;;;;13.97;13.57;;;27.20;42.50;;;;;;5019365;28;20487;-46
2021/12/21 11:03:35;;;;;;;14.73;14.23;;;27.50;42.20;;;;;;5019271;28;20449;-48
2021/12/21 11:06:10;;;;;;;14.90;14.40;;;27.90;41.70;;;;;;5019132;28;21009;-45
2021/12/21 11:08:38;;;;;;;13.77;13.37;;;28.20;41.10;;;;;;5022579;28;20456;-46
2021/12/21 11:11:10;;;;;;;15.23;14.73;;;28.30;40.80;;;;;;5022747;28;20580;-48
2021/12/21 11:13:36;;;;;;;14.63;14.13;;;28.40;40.50;;;;;;5030565;28;20502;-46
2021/12/21 11:16:07;;;;;;;14.13;13.73;;;28.50;40.10;;;;;;5034073;28;20487;-47
2021/12/21 11:18:37;;;;;;;13.80;13.40;;;28.70;39.90;;;;;;5034881;28;20448;-47
2021/12/21 11:21:09;;;;;;;14.80;14.30;;;28.80;39.60;;;;;;5034460;28;20489;-50
2021/12/21 11:23:36;;;;;;;12.48;11.98;;;29.30;39.30;;;;;;5033494;28;20779;-46
2021/12/21 11:26:07;;;;;;;14.33;13.83;;;30.20;38.60;;;;;;5034592;28;20191;-49
2021/12/21 11:28:36;;;;;;;14.90;14.50;;;30.60;37.70;;;;;;5034722;28;20545;-48
2021/12/21 11:31:06;;;;;;;14.63;14.23;;;30.90;37.20;;;;;;5034441;28;20503;-48
2021/12/21 11:33:40;;;;;;;15.20;14.70;;;31.00;36.80;;;;;;5034205;28;20451;-49
2021/12/21 11:38:52;;;;;;;14.60;14.10;;;30.90;36.70;;;;;;5034371;28;20428;-47
2021/12/21 11:41:19;;;;;;;15.20;14.60;;;30.80;36.70;;;;;;5034013;28;20480;-46
2021/12/21 11:43:57;;;;;;;14.10;13.70;;;30.70;36.70;;;;;;5034129;28;20507;-48
2021/12/21 11:46:33;;;;;;;14.30;13.70;;;30.80;36.70;;;;;;5033381;28;20491;-50
2021/12/21 11:49:07;;;;;;;14.73;14.03;;;30.90;36.40;;;;;;5033629;28;20444;-48
2021/12/21 11:51:34;;;;;;;14.87;14.47;;;30.90;36.30;;;;;;5033731;28;20471;-47
2021/12/21 11:54:00;;;;;;;13.83;13.43;;;30.90;36.20;;;;;;5034028;28;20460;-46
2021/12/21 11:56:28;;;;;;;14.57;14.07;;;30.80;36.10;;;;;;5034060;28;20445;-47
2021/12/21 11:58:57;;;;;;;14.63;14.13;;;30.70;36.10;;;;;;5033993;28;20507;-45
2021/12/21 12:01:27;;;;;;;14.33;13.87;;;30.50;36.10;;;;;;5033715;28;20573;-46
2021/12/21 12:03:57;;;;;;;14.53;14.03;;;30.40;36.20;;;;;;5033786;28;20445;-46
2021/12/21 12:06:25;;;;;;;16.53;15.93;;;30.20;36.30;;;;;;5033813;28;20453;-45
2021/12/21 12:08:56;;;;;;;14.93;14.43;;;30.20;36.40;;;;;;5033715;28;20449;-45
2021/12/21 12:11:24;;;;;;;14.87;14.47;;;30.40;36.50;;;;;;5033839;28;20473;-47
2021/12/21 12:14:02;;;;;;;14.30;13.90;;;30.30;36.20;;;;;;5033515;28;20525;-48
2021/12/21 12:16:40;;;;;;;14.13;13.73;;;30.20;36.40;;;;;;5033747;28;20759;-48
2021/12/21 12:19:11;;;;;;;15.07;14.57;;;30.00;36.50;;;;;;5033285;28;20849;-47
2021/12/21 12:21:37;;;;;;;15.43;14.90;;;30.00;36.60;;;;;;5033323;28;20847;-50
2021/12/21 12:24:05;;;;;;;14.73;14.10;;;30.00;36.60;;;;;;5033409;28;20817;-48
2021/12/21 12:26:34;;;;;;;15.47;14.87;;;30.10;36.50;;;;;;5033423;28;20786;-46
2021/12/21 12:29:13;;;;;;;13.00;12.60;;;30.20;36.50;;;;;;5034048;28;20471;-46
2021/12/21 12:31:43;;;;;;;14.80;14.30;;;30.50;36.20;;;;;;5033682;28;20464;-45
2021/12/21 12:34:10;;;;;;;15.47;14.97;;;30.60;36.10;;;;;;5033559;28;20461;-45
2021/12/21 12:36:46;;;;;;;15.07;14.60;;;30.50;36.00;;;;;;5033347;28;20451;-43
2021/12/21 12:39:28;;;;;;;15.67;15.07;;;30.30;36.10;;;;;;5032957;28;20448;-44
2021/12/21 12:42:02;;;;;;;14.47;14.07;;;30.20;36.30;;;;;;5033112;28;20563;-45
2021/12/21 12:44:29;;;;;;;14.20;13.70;;;29.90;36.40;;;;;;5033321;28;20452;-43
2021/12/21 12:47:02;;;;;;;14.30;13.80;;;29.80;36.70;;;;;;5033371;28;20452;-44
2021/12/21 12:49:31;;;;;;;13.93;13.53;;;29.80;36.80;;;;;;5033027;28;20814;-44
2021/12/21 12:52:13;;;;;;;13.97;13.47;;;30.00;36.80;;;;;;5032911;28;20460;-46
2021/12/21 12:54:50;;;;;;;13.60;13.20;;;30.30;36.40;;;;;;5032589;28;20444;-44
2021/12/21 12:57:28;;;;;;;13.40;13.00;;;30.50;35.90;;;;;;5033073;28;20448;-48
2021/12/21 12:59:57;;;;;;;13.87;13.37;;;30.50;35.80;;;;;;5032849;28;20444;-46
2021/12/21 13:02:26;;;;;;;15.00;14.50;;;30.50;35.70;;;;;;5032635;28;20492;-45
2021/12/21 13:04:52;;;;;;;13.33;12.93;;;30.30;35.80;;;;;;5032782;28;20448;-46
2021/12/21 13:07:27;;;;;;;14.53;14.03;;;30.20;36.10;;;;;;5032750;28;20868;-44
2021/12/21 13:10:02;;;;;;;14.73;14.13;;;30.10;36.20;;;;;;5032950;28;20463;-44
2021/12/21 13:12:29;;;;;;;15.47;14.87;;;30.10;36.30;;;;;;5032575;28;20536;-46
2021/12/21 13:14:56;;;;;;;14.33;13.83;;;30.10;36.40;;;;;;5032648;28;20448;-45
2021/12/21 13:17:23;;;;;;;12.67;12.30;;;30.20;36.30;;;;;;5032600;28;20949;-46
2021/12/21 13:19:51;;;;;;;14.30;13.80;;;30.40;36.30;;;;;;5032530;28;20858;-44